Airfield :
LOGIN :

Register | Disclaimer

   EN    FR    IT 

 










Legend :    VFR   Marginal VFR   IFR   Intensive IFR   Very Intensive IFR
Visi :
Ceiling :
>= 8 km
>= 3000ft
5 to 8 km
1000 to 3000 ft
1500m to 5 km
500 to 1000 ft
800 to 1500m
200 to 500 ft
< 800m
< 200 ft
Symbols :   Thunderstorms  Fog  Heavy snow  Heavy precipitations  Wind > 20 kt
SIGMETs :     Misc.  Thunderstorms  Icing  Turbulence  Mountain Waves  Volcanic Ashes






- Airport Elevation : 160 ft
- IATA code : LRT


LFRH - Lorient Lann Bihoue

CURRENT METAR :
  • 012300Z AUTO 31022G35KT 280V340 6000 RA SCT009/// BKN027/// BKN043/// ///CB 10/09 Q0979 TEMPO 2500 RA BKN003 OVC006CB BECMG 13015G25KT

EXPIRED METARs :
  • 012230Z AUTO 31028G44KT 2300 +RA BR BKN006/// BKN011/// OVC026/// ///CB 10/10 Q0975 TEMPO BKN003 OVC006CB BECMG 13015G25KT
  • 012200Z AUTO 02017G29KT 340V050 2500 +RA BR OVC006/// ///TCU 12/11 Q0974 TEMPO 31035G55KT BKN003 OVC006CB
  • 012130Z AUTO 08025G35KT 2900 +RA BR BKN008/// OVC014/// ///TCU 12/11 Q0976 TEMPO 31035G55KT BKN003 OVC006CB
  • 012100Z AUTO 10024G38KT 070V130 9999 -RA OVC007/// ///TCU 12/11 Q0980 TEMPO 31035G55KT 2500 RA BKN003 OVC006CB
  • 012030Z AUTO 11020G32KT 3900 +RA BR BKN006/// OVC010/// ///CB 12/11 Q0983 TEMPO 31035G50KT 2500 RA BKN003 OVC006CB

TAF AMD TAF LFRH
Valid from the 01 at 20:00 until the 02 at 18:00 UTC


012031Z 0120/0218 13015G25KT 7000 BKN008 OVC014CB
TEMPO 0120/0201 2500 RA BKN003 OVC006CB
TEMPO 0120/0122 09025G35KT
TEMPO 0122/0124 31035G55KT
BECMG 0202/0204 28015G25KT SCT025
BECMG 0210/0212 4500 RA BKN012 OVC020
BECMG 0216/0218 27025G35KT



MET'MAP, your aeronautical weather chart ! - Copyright ORBIFLY December 2007 - Disclaimer

ORBIFLY MET'MAP TEAM :

Programming & Development : Alexandra Zaïnal
Concept & original design : Baudouin d'Aumeries
Assistance for programming : Marc-Olivier Méhu
Technical & hardware support : Manuel Goepfert

Contact : metmap@orbifly.com




SOURCES & CREDITS :

   NOAA